Time;durP1;ratioP1;P1;durP2;ratioP2;P2;SDS_P1;SDS_P2;PMS_P1;PMS_P2;Temp;Humidity;BMP_temperature;BMP_pressure;BME280_temperature;BME280_humidity;BME280_pressure;Samples;Min_cycle;Max_cycle;Signal;HPM_P1;HPM_P2
2022/06/17 00:00:13;;;;;;;5.43;3.80;;;;;;;14.24;90.78;101596.72;694594;28;1140;-77
2022/06/17 00:00:33;;;;;;;4.95;3.80;;;;;;;14.28;90.83;101595.84;693418;28;926;-78
2022/06/17 00:00:58;;;;;;;5.50;3.97;;;;;;;14.30;91.06;101594.09;693364;28;1129;-78
2022/06/17 00:01:18;;;;;;;5.82;4.03;;;;;;;14.30;90.62;101604.59;695224;28;4279;-78
2022/06/17 00:01:39;;;;;;;5.40;3.83;;;;;;;14.30;90.78;101593.19;696676;28;1541;-78
2022/06/17 00:02:00;;;;;;;5.55;4.05;;;;;;;14.33;90.87;101592.31;696678;28;1222;-78
2022/06/17 00:02:20;;;;;;;4.68;3.80;;;;;;;14.30;90.62;101596.72;696749;28;1330;-78
2022/06/17 00:02:40;;;;;;;5.10;3.83;;;;;;;14.32;90.56;101599.34;697539;28;844;-78
2022/06/17 00:03:01;;;;;;;5.55;4.10;;;;;;;14.28;91.77;101595.84;695732;28;2345;-78
2022/06/17 00:03:23;;;;;;;5.37;3.87;;;;;;;14.19;92.75;101595.00;696309;28;1326;-78
2022/06/17 00:03:44;;;;;;;5.45;4.00;;;;;;;14.08;93.77;101593.31;696266;28;1020;-78
2022/06/17 00:04:05;;;;;;;5.50;3.90;;;;;;;14.03;93.59;101589.81;693536;28;1341;-78
2022/06/17 00:04:25;;;;;;;5.28;3.85;;;;;;;14.06;92.00;101607.34;692330;28;5758;-78
2022/06/17 00:04:47;;;;;;;6.13;4.00;;;;;;;14.10;91.24;101591.53;696939;28;820;-78
2022/06/17 00:05:08;;;;;;;6.22;4.25;;;;;;;14.08;93.59;101595.06;696264;28;1327;-78
2022/06/17 00:05:28;;;;;;;5.82;4.30;;;;;;;13.99;93.94;101597.75;692785;28;1288;-78
2022/06/17 00:05:50;;;;;;;6.10;4.20;;;;;;;13.92;94.21;101587.22;693757;28;1328;-78
2022/06/17 00:06:12;;;;;;;6.15;4.07;;;;;;;13.91;94.20;101588.09;690220;28;1403;-78
2022/06/17 00:06:39;;;;;;;6.05;4.28;;;;;;;13.94;93.24;101598.63;689100;28;1036;-78
2022/06/17 00:07:04;;;;;;;6.18;4.10;;;;;;;14.03;92.45;101599.47;692263;28;1497;-78
2022/06/17 00:07:24;;;;;;;5.70;3.83;;;;;;;14.11;91.69;101592.44;694966;28;4285;-78
2022/06/17 00:07:45;;;;;;;5.03;3.90;;;;;;;14.12;92.18;101588.91;695405;28;1328;-78
2022/06/17 00:08:25;;;;;;;6.23;4.20;;;;;;;14.12;92.84;101584.53;695900;28;1156;-78
2022/06/17 00:08:49;;;;;;;6.60;4.25;;;;;;;14.04;93.18;101590.69;695816;28;1394;-78
2022/06/17 00:09:13;;;;;;;5.10;3.85;;;;;;;14.09;92.81;101588.91;696431;28;1043;-77
2022/06/17 00:09:35;;;;;;;5.55;4.00;;;;;;;14.16;91.76;101585.38;697488;28;943;-78
2022/06/17 00:09:55;;;;;;;5.22;3.85;;;;;;;14.17;91.14;101588.91;694792;28;1023;-77
2022/06/17 00:10:25;;;;;;;6.28;3.97;;;;;;;14.20;90.67;101589.75;691114;28;4415;-78
2022/06/17 00:10:45;;;;;;;6.20;3.67;;;;;;;14.21;91.06;101585.38;694629;28;1336;-78
2022/06/17 00:11:12;;;;;;;4.95;3.53;;;;;;;14.20;92.11;101596.75;696025;28;1294;-78
2022/06/17 00:11:36;;;;;;;5.60;3.80;;;;;;;14.18;91.89;101594.16;696615;28;1111;-78
2022/06/17 00:11:56;;;;;;;5.15;3.75;;;;;;;14.13;92.04;101595.91;694617;28;1414;-78
2022/06/17 00:12:17;;;;;;;4.97;3.83;;;;;;;14.14;92.26;101598.53;691030;28;1430;-78
2022/06/17 00:12:37;;;;;;;4.90;3.80;;;;;;;14.09;92.78;101597.66;691210;28;1334;-77
2022/06/17 00:12:58;;;;;;;5.57;3.72;;;;;;;14.07;92.36;101593.31;693863;28;1155;-78
2022/06/17 00:13:19;;;;;;;5.67;3.80;;;;;;;14.03;92.57;101596.84;693276;28;4305;-78
2022/06/17 00:13:40;;;;;;;5.22;3.80;;;;;;;13.98;92.26;101596.84;694081;28;1213;-77
2022/06/17 00:14:01;;;;;;;5.23;4.00;;;;;;;13.95;93.77;101597.72;698964;28;1811;-78
2022/06/17 00:14:28;;;;;;;5.47;3.97;;;;;;;13.89;94.54;101592.50;699059;28;998;-78
2022/06/17 00:15:27;;;;;;;5.22;3.90;;;;;;;13.88;92.75;101595.16;697745;28;1882;-78
2022/06/17 00:15:48;;;;;;;5.43;3.93;;;;;;;13.92;92.74;101589.88;695828;28;1452;-78
2022/06/17 00:16:14;;;;;;;5.75;4.10;;;;;;;13.89;94.04;101589.88;695829;28;4368;-78
2022/06/17 00:16:35;;;;;;;5.82;3.90;;;;;;;13.87;93.73;101591.63;698895;28;4913;-78
2022/06/17 00:16:55;;;;;;;6.35;4.05;;;;;;;13.90;92.83;101589.00;697406;28;852;-78
2022/06/17 00:17:15;;;;;;;5.53;3.73;;;;;;;13.90;93.13;101593.38;695754;28;1219;-78
2022/06/17 00:17:39;;;;;;;5.18;3.63;;;;;;;13.91;92.94;101587.25;695381;28;1254;-78
2022/06/17 00:17:59;;;;;;;6.10;4.00;;;;;;;13.83;94.82;101603.06;694884;28;894;-78
2022/06/17 00:18:20;;;;;;;6.70;4.82;;;;;;;13.78;94.49;101589.06;696682;28;1255;-78
2022/06/17 00:18:42;;;;;;;7.15;4.68;;;;;;;13.77;93.31;101590.78;694288;28;1410;-78
2022/06/17 00:19:03;;;;;;;6.45;4.20;;;;;;;13.80;93.39;101613.56;695799;28;1417;-78
2022/06/17 00:19:23;;;;;;;5.50;4.20;;;;;;;13.77;94.46;101589.91;691345;28;4308;-78
2022/06/17 00:19:44;;;;;;;5.22;3.80;;;;;;;13.77;94.47;101613.56;690133;28;1421;-78
2022/06/17 00:20:07;;;;;;;5.90;4.10;;;;;;;13.72;95.07;101591.69;689769;28;989;-78
2022/06/17 00:20:30;;;;;;;5.18;3.97;;;;;;;13.66;95.54;101600.47;696022;28;1199;-78
2022/06/17 00:20:50;;;;;;;5.70;4.32;;;;;;;13.63;95.76;101601.34;696315;28;1640;-78
2022/06/17 00:21:22;;;;;;;5.65;4.10;;;;;;;13.62;95.49;101617.09;696455;28;1230;-78
2022/06/17 00:21:47;;;;;;;7.05;4.40;;;;;;;13.62;94.54;101582.94;699435;28;1260;-78
2022/06/17 00:22:08;;;;;;;5.30;3.70;;;;;;;13.64;95.33;101591.72;698851;28;4636;-78
2022/06/17 00:22:29;;;;;;;4.88;3.70;;;;;;;13.65;95.04;101597.84;695337;28;1300;-78
2022/06/17 00:22:49;;;;;;;5.27;3.60;;;;;;;13.68;93.38;101593.47;695596;28;899;-78
2022/06/17 00:23:15;;;;;;;5.50;4.00;;;;;;;13.75;93.20;101584.69;697655;28;1315;-78
2022/06/17 00:23:36;;;;;;;5.70;3.90;;;;;;;13.77;94.23;101589.91;698596;28;985;-78
2022/06/17 00:23:58;;;;;;;5.22;4.00;;;;;;;13.78;94.22;101591.69;698594;28;1594;-78
2022/06/17 00:24:27;;;;;;;5.40;3.92;;;;;;;13.77;94.15;101596.03;695561;28;1700;-77
2022/06/17 00:24:50;;;;;;;5.63;3.90;;;;;;;13.78;93.37;101589.91;694911;28;1208;-78
2022/06/17 00:25:22;;;;;;;6.03;3.92;;;;;;;13.76;93.85;101590.78;693209;28;4348;-78
2022/06/17 00:25:47;;;;;;;5.53;4.00;;;;;;;13.70;93.89;101594.31;695836;28;1408;-78
2022/06/17 00:26:10;;;;;;;5.55;3.90;;;;;;;13.70;93.55;101596.94;692665;28;1489;-78
2022/06/17 00:26:30;;;;;;;5.15;3.78;;;;;;;13.66;94.31;101591.72;695416;28;1280;-78
2022/06/17 00:26:52;;;;;;;5.60;3.83;;;;;;;13.63;94.01;101593.44;695620;28;918;-78
2022/06/17 00:27:13;;;;;;;4.90;4.20;;;;;;;13.55;95.50;101597.00;692448;28;1420;-78
2022/06/17 00:27:33;;;;;;;5.60;4.18;;;;;;;13.49;95.78;101595.25;694846;28;1426;-78
2022/06/17 00:27:56;;;;;;;5.60;4.00;;;;;;;13.48;95.62;101598.75;694076;28;1300;-78
2022/06/17 00:28:20;;;;;;;6.30;4.50;;;;;;;13.57;94.89;101595.25;697321;28;4627;-78
2022/06/17 00:28:41;;;;;;;5.53;3.95;;;;;;;13.56;94.95;101590.88;693073;28;1299;-77
2022/06/17 00:29:01;;;;;;;5.00;3.80;;;;;;;13.52;96.25;101595.25;694642;28;1270;-77
2022/06/17 00:29:26;;;;;;;5.47;3.90;;;;;;;13.42;96.78;101596.16;695326;28;1435;-78
2022/06/17 00:29:46;;;;;;;5.55;4.20;;;;;;;13.38;96.21;101592.63;695446;28;1249;-78
2022/06/17 00:30:16;;;;;;;5.17;3.90;;;;;;;13.35;96.61;101590.03;695512;28;1038;-78
2022/06/17 00:30:36;;;;;;;5.40;4.07;;;;;;;13.36;96.85;101596.13;692399;28;1021;-78
2022/06/17 00:30:57;;;;;;;5.60;4.20;;;;;;;13.35;97.23;101589.13;692637;28;1576;-78
2022/06/17 00:31:17;;;;;;;5.67;4.30;;;;;;;13.34;97.50;101593.47;692119;28;4293;-77
2022/06/17 00:31:38;;;;;;;5.70;4.20;;;;;;;13.35;96.51;101584.78;692960;28;1248;-78
2022/06/17 00:31:58;;;;;;;5.95;4.20;;;;;;;13.35;96.60;101592.66;694404;28;820;-78
2022/06/17 00:32:19;;;;;;;5.03;3.80;;;;;;;13.37;97.02;101590.88;691455;28;1277;-78
2022/06/17 00:32:39;;;;;;;6.30;3.93;;;;;;;13.38;97.73;101590.00;692692;28;1226;-78
2022/06/17 00:33:02;;;;;;;6.30;3.97;;;;;;;13.36;97.27;101585.63;693727;28;1420;-78
2022/06/17 00:33:22;;;;;;;6.43;4.15;;;;;;;13.39;95.92;101589.16;695104;28;1453;-78
2022/06/17 00:33:43;;;;;;;6.22;4.05;;;;;;;13.36;96.83;101591.78;697233;28;1225;-78
2022/06/17 00:34:04;;;;;;;5.40;4.00;;;;;;;13.32;96.52;101582.13;698867;28;1368;-77
2022/06/17 00:34:25;;;;;;;5.30;4.20;;;;;;;13.36;96.23;101590.88;696309;28;4683;-78
2022/06/17 00:34:45;;;;;;;5.82;4.00;;;;;;;13.37;96.18;101585.63;693984;28;1258;-78
2022/06/17 00:35:06;;;;;;;6.60;3.97;;;;;;;13.40;97.51;101592.63;693481;28;986;-77
2022/06/17 00:35:36;;;;;;;6.32;4.25;;;;;;;13.29;97.61;101580.38;688674;28;1918;-78
2022/06/17 00:35:57;;;;;;;5.65;3.83;;;;;;;13.29;96.54;101584.72;687681;28;1609;-78
2022/06/17 00:36:18;;;;;;;5.05;3.90;;;;;;;13.34;96.82;101582.97;690971;28;1208;-78
2022/06/17 00:36:40;;;;;;;6.00;4.18;;;;;;;13.31;97.59;101582.13;700492;28;1988;-78
2022/06/17 00:37:02;;;;;;;5.63;4.40;;;;;;;13.34;95.94;101595.25;699868;28;1377;-78
2022/06/17 00:37:23;;;;;;;5.65;4.10;;;;;;;13.33;96.56;101586.47;693742;28;4294;-78
2022/06/17 00:37:44;;;;;;;6.00;3.92;;;;;;;13.34;96.30;101590.00;694038;28;1520;-78
2022/06/17 00:38:09;;;;;;;6.30;4.30;;;;;;;13.36;96.22;101583.00;688974;28;1384;-78
2022/06/17 00:38:32;;;;;;;5.38;3.97;;;;;;;13.35;95.19;101587.41;688924;28;1264;-78
2022/06/17 00:38:53;;;;;;;6.00;4.28;;;;;;;13.35;96.97;101589.13;690862;28;1071;-78
2022/06/17 00:39:22;;;;;;;5.40;4.07;;;;;;;13.29;97.13;101580.38;690605;28;5144;-78
2022/06/17 00:39:44;;;;;;;6.18;4.22;;;;;;;13.35;95.62;101584.78;688996;28;1388;-78
2022/06/17 00:40:15;;;;;;;6.67;4.20;;;;;;;13.36;97.06;101586.53;693119;28;1012;-78
2022/06/17 00:40:35;;;;;;;5.82;4.30;;;;;;;13.34;96.32;101577.72;693456;28;4961;-78
2022/06/17 00:40:58;;;;;;;5.83;4.20;;;;;;;13.37;95.35;101587.41;693252;28;1324;-77
2022/06/17 00:41:37;;;;;;;6.95;3.97;;;;;;;13.38;96.48;101586.53;693013;28;1259;-77
2022/06/17 00:42:04;;;;;;;6.40;4.13;;;;;;;13.39;96.14;101585.66;693180;28;1389;-77
2022/06/17 00:42:24;;;;;;;5.30;3.80;;;;;;;13.42;95.05;101585.63;692478;28;1423;-77
2022/06/17 00:42:45;;;;;;;5.32;4.00;;;;;;;13.40;96.47;101582.13;695697;28;1570;-77
2022/06/17 00:43:13;;;;;;;5.63;3.97;;;;;;;13.31;96.66;101587.38;691687;28;4321;-77
2022/06/17 00:43:40;;;;;;;6.13;4.22;;;;;;;13.36;95.20;101601.38;693811;28;1467;-77
2022/06/17 00:44:18;;;;;;;5.93;3.95;;;;;;;13.37;96.42;101588.25;694971;28;1306;-77
2022/06/17 00:44:51;;;;;;;5.03;4.05;;;;;;;13.38;96.45;101583.91;692580;28;1187;-77
2022/06/17 00:45:26;;;;;;;5.90;4.43;;;;;;;13.31;97.26;101582.13;692115;28;1300;-77
2022/06/17 00:45:52;;;;;;;4.70;4.00;;;;;;;13.39;95.51;101583.03;694824;28;852;-77
2022/06/17 00:46:33;;;;;;;5.78;4.18;;;;;;;13.36;97.08;101583.91;688578;28;4307;-77
2022/06/17 00:47:26;;;;;;;5.28;3.95;;;;;;;13.38;95.45;101578.66;691064;28;1457;-77
2022/06/17 00:47:53;;;;;;;5.65;4.00;;;;;;;13.37;97.54;101585.63;692502;28;2168;-77
2022/06/17 00:48:22;;;;;;;5.93;4.22;;;;;;;13.34;96.58;101577.72;699868;28;1187;-77
2022/06/17 00:48:49;;;;;;;5.43;4.03;;;;;;;13.35;95.44;101578.63;697596;28;991;-77
2022/06/17 00:49:43;;;;;;;6.50;4.20;;;;;;;13.39;95.96;101580.41;694813;28;4322;-77
2022/06/17 00:50:15;;;;;;;5.50;4.10;;;;;;;13.37;95.23;101580.38;694937;28;1332;-79
2022/06/17 00:50:59;;;;;;;5.90;3.88;;;;;;;13.37;95.62;101577.75;696758;28;938;-78
2022/06/17 00:51:23;;;;;;;6.22;4.05;;;;;;;13.29;96.78;101576.84;696706;28;1291;-77
2022/06/17 00:51:54;;;;;;;5.50;4.05;;;;;;;13.29;96.42;101595.22;696802;28;1049;-77
2022/06/17 00:52:21;;;;;;;6.82;4.05;;;;;;;13.38;95.51;101578.66;695739;28;4308;-79
2022/06/17 00:52:48;;;;;;;5.45;4.10;;;;;;;13.40;95.09;101576.88;698721;28;1279;-77
2022/06/17 00:53:18;;;;;;;6.85;4.32;;;;;;;13.39;95.30;101585.66;697852;28;1027;-77
2022/06/17 00:53:59;;;;;;;5.65;3.83;;;;;;;13.33;96.47;101585.63;698170;28;1415;-77
2022/06/17 00:54:23;;;;;;;5.43;4.07;;;;;;;13.27;96.66;101582.09;697692;28;1129;-77
2022/06/17 00:54:51;;;;;;;5.95;4.22;;;;;;;13.28;95.94;101586.50;695454;28;1232;-77
2022/06/17 00:55:25;;;;;;;6.05;4.10;;;;;;;13.29;95.80;101579.47;694499;28;4304;-77
2022/06/17 00:55:53;;;;;;;5.47;3.90;;;;;;;13.33;95.61;101575.09;698543;28;1578;-77
2022/06/17 00:56:35;;;;;;;5.93;4.18;;;;;;;13.25;96.21;101582.97;696816;28;2063;-77
2022/06/17 00:56:56;;;;;;;6.22;4.20;;;;;;;13.28;95.97;101581.25;691795;28;1396;-77
2022/06/17 00:57:28;;;;;;;6.38;4.20;;;;;;;13.28;96.23;101576.00;695614;28;1524;-77
2022/06/17 00:57:48;;;;;;;6.18;4.07;;;;;;;13.35;95.88;101582.16;692618;28;1386;-77
2022/06/17 00:58:22;;;;;;;5.27;3.73;;;;;;;13.39;95.09;101578.63;694552;28;4310;-77
2022/06/17 00:59:09;;;;;;;5.88;4.00;;;;;;;13.45;94.07;101572.50;690307;28;1446;-77
2022/06/17 00:59:36;;;;;;;5.53;4.20;;;;;;;13.48;94.99;101577.72;690682;28;1504;-77
2022/06/17 01:00:11;;;;;;;5.90;3.97;;;;;;;13.46;95.78;101571.63;692084;28;1337;-77
2022/06/17 01:00:33;;;;;;;7.03;4.75;;;;;;;13.43;96.23;101583.00;695717;28;2042;-77
2022/06/17 01:00:57;;;;;;;6.80;4.65;;;;;;;13.44;94.59;101573.38;694389;28;1122;-77
2022/06/17 01:01:18;;;;;;;5.63;3.78;;;;;;;13.46;94.16;101571.63;695844;28;4597;-77
2022/06/17 01:01:50;;;;;;;5.95;3.83;;;;;;;13.43;93.91;101577.75;690477;28;1410;-77
2022/06/17 01:02:17;;;;;;;6.25;4.05;;;;;;;13.46;93.88;101571.63;689943;28;1508;-80
2022/06/17 01:02:42;;;;;;;5.63;3.93;;;;;;;13.48;93.27;101577.72;693679;28;1398;-78
2022/06/17 01:03:08;;;;;;;6.55;4.22;;;;;;;13.46;95.24;101571.63;692362;28;1272;-77
2022/06/17 01:03:35;;;;;;;7.45;4.15;;;;;;;13.49;93.53;101571.59;696416;28;1290;-78
2022/06/17 01:04:01;;;;;;;5.63;3.88;;;;;;;13.46;94.74;101579.50;693537;28;1017;-78
2022/06/17 01:04:25;;;;;;;5.57;3.97;;;;;;;13.44;94.36;101576.88;692991;28;4316;-78
2022/06/17 01:04:48;;;;;;;6.75;3.75;;;;;;;13.40;94.56;101572.50;694573;28;1488;-78
2022/06/17 01:05:10;;;;;;;5.80;4.00;;;;;;;13.43;94.10;101569.88;692373;28;1207;-78
2022/06/17 01:05:43;;;;;;;5.15;3.80;;;;;;;13.44;94.84;101576.88;692490;28;1744;-77
2022/06/17 01:06:10;;;;;;;5.88;3.97;;;;;;;13.43;94.89;101571.59;690487;28;1105;-78
2022/06/17 01:06:35;;;;;;;6.10;3.92;;;;;;;13.41;94.73;101574.25;689239;28;835;-78
2022/06/17 01:07:03;;;;;;;5.45;3.88;;;;;;;13.37;95.04;101576.88;693114;28;2157;-78
2022/06/17 01:07:27;;;;;;;6.95;3.90;;;;;;;13.39;94.82;101575.16;697319;28;4464;-78
2022/06/17 01:07:57;;;;;;;5.35;3.92;;;;;;;13.39;94.58;101573.38;698427;28;1345;-78
2022/06/17 01:09:58;;;;;;;5.65;4.00;;;;;;;13.43;93.92;101576.84;701281;28;1270;-78
2022/06/17 01:10:20;;;;;;;5.25;3.78;;;;;;;13.45;94.09;101572.50;703683;27;4315;-78
2022/06/17 01:10:47;;;;;;;5.85;4.00;;;;;;;13.46;93.56;101582.13;698009;28;1356;-78
2022/06/17 01:11:12;;;;;;;5.20;3.60;;;;;;;13.48;93.00;101582.13;696349;28;1322;-77
2022/06/17 01:11:34;;;;;;;5.45;3.75;;;;;;;13.49;93.48;101578.63;693746;28;878;-78
2022/06/17 01:11:58;;;;;;;5.35;3.80;;;;;;;13.48;93.35;101575.09;688234;28;2019;-78
2022/06/17 01:12:22;;;;;;;5.25;3.70;;;;;;;13.49;92.90;101571.59;693573;28;1524;-78
2022/06/17 01:12:46;;;;;;;5.75;3.92;;;;;;;13.48;92.55;101577.72;692996;28;1275;-77
2022/06/17 01:13:08;;;;;;;5.05;3.85;;;;;;;13.48;92.15;101572.47;692395;28;4294;-78
2022/06/17 01:13:31;;;;;;;5.32;4.10;;;;;;;13.50;92.43;101572.47;693041;28;1703;-78
2022/06/17 01:13:51;;;;;;;5.77;4.10;;;;;;;13.53;91.22;101577.75;691672;28;787;-78
2022/06/17 01:14:15;;;;;;;6.10;4.28;;;;;;;13.50;92.39;101582.97;692123;28;1255;-78
2022/06/17 01:14:38;;;;;;;6.47;4.00;;;;;;;13.45;93.12;101581.25;692621;28;1248;-78
2022/06/17 01:15:00;;;;;;;5.00;3.80;;;;;;;13.45;93.15;101575.13;694477;28;1115;-78
2022/06/17 01:15:24;;;;;;;4.47;3.75;;;;;;;13.48;92.61;101577.72;694552;28;1973;-78
2022/06/17 01:15:48;;;;;;;5.10;3.88;;;;;;;13.50;93.05;101585.59;695464;28;1495;-78
2022/06/17 01:16:09;;;;;;;6.03;3.90;;;;;;;13.52;92.68;101574.22;693378;28;4334;-77
2022/06/17 01:16:34;;;;;;;5.60;3.63;;;;;;;13.47;94.20;101573.34;696102;28;1682;-78
2022/06/17 01:17:03;;;;;;;5.43;3.72;;;;;;;13.48;93.74;101590.00;697563;28;2179;-78
2022/06/17 01:17:25;;;;;;;4.88;3.65;;;;;;;13.41;93.85;101578.63;695496;28;1363;-78
2022/06/17 01:17:52;;;;;;;5.25;3.60;;;;;;;13.40;93.68;101582.13;693565;28;1243;-78
2022/06/17 01:18:12;;;;;;;5.30;3.70;;;;;;;13.41;93.71;101581.25;693095;28;1385;-78
2022/06/17 01:18:40;;;;;;;5.35;3.80;;;;;;;13.40;93.56;101576.88;690089;28;1493;-78
2022/06/17 01:19:22;;;;;;;5.00;4.03;;;;;;;13.35;94.68;101583.88;696473;28;1336;-78
2022/06/17 01:19:48;;;;;;;5.35;3.70;;;;;;;13.39;93.16;101570.75;695299;28;4920;-77
2022/06/17 01:20:17;;;;;;;6.07;4.00;;;;;;;13.41;93.31;101576.00;690816;28;1259;-78
2022/06/17 01:20:41;;;;;;;5.63;4.13;;;;;;;13.39;93.62;101575.16;694045;28;1219;-78
2022/06/17 01:21:19;;;;;;;5.40;3.72;;;;;;;13.34;94.73;101582.13;694952;28;1633;-78
2022/06/17 01:22:04;;;;;;;5.53;3.85;;;;;;;13.37;93.70;101577.75;694660;28;1460;-78
2022/06/17 01:22:28;;;;;;;5.53;3.78;;;;;;;13.38;94.05;101571.63;694857;28;4228;-78
2022/06/17 01:22:53;;;;;;;5.60;3.88;;;;;;;13.35;94.85;101589.13;695543;28;1278;-78
2022/06/17 01:23:19;;;;;;;5.90;3.75;;;;;;;13.29;95.23;101574.22;696734;28;1291;-78
2022/06/17 01:23:40;;;;;;;5.80;3.72;;;;;;;13.27;94.24;101592.63;695380;28;943;-78
2022/06/17 01:24:00;;;;;;;5.50;3.80;;;;;;;13.34;93.74;101571.63;696633;28;1099;-78
2022/06/17 01:24:21;;;;;;;5.23;3.83;;;;;;;13.34;93.74;101571.63;694112;28;1181;-78
2022/06/17 01:24:44;;;;;;;5.55;3.90;;;;;;;13.36;93.07;101588.25;692794;28;1225;-78
2022/06/17 01:25:21;;;;;;;5.20;3.58;;;;;;;13.28;94.11;101573.38;691222;28;1342;-77
2022/06/17 01:25:44;;;;;;;5.88;3.80;;;;;;;13.28;93.72;101577.75;693273;28;4963;-78
2022/06/17 01:26:05;;;;;;;5.85;3.70;;;;;;;13.29;93.87;101564.63;691374;28;1612;-78
2022/06/17 01:26:26;;;;;;;6.33;3.70;;;;;;;13.32;93.59;101562.84;697218;28;1438;-78
2022/06/17 01:26:46;;;;;;;6.38;3.70;;;;;;;13.32;94.17;101562.84;696178;28;1461;-78
2022/06/17 01:27:07;;;;;;;6.83;3.90;;;;;;;13.34;93.15;101571.63;696631;28;904;-78
2022/06/17 01:27:43;;;;;;;5.03;3.83;;;;;;;13.36;91.96;101567.25;697553;28;1270;-78
2022/06/17 01:28:12;;;;;;;6.57;3.70;;;;;;;13.33;92.30;101564.59;696838;28;1201;-78
2022/06/17 01:28:33;;;;;;;5.75;3.55;;;;;;;13.34;92.83;101572.47;695477;28;4754;-78
2022/06/17 01:28:53;;;;;;;4.83;3.57;;;;;;;13.36;91.69;101564.63;695424;28;1286;-78
2022/06/17 01:29:14;;;;;;;4.43;3.63;;;;;;;13.38;92.53;101570.75;692254;28;916;-78
2022/06/17 01:29:34;;;;;;;5.77;3.80;;;;;;;13.39;92.09;101567.28;690123;28;1488;-78
2022/06/17 01:29:55;;;;;;;6.63;4.27;;;;;;;13.37;92.61;101572.50;691518;28;921;-77
2022/06/17 01:30:22;;;;;;;5.97;4.00;;;;;;;13.38;92.40;101573.38;692484;28;1301;-78
2022/06/17 01:30:46;;;;;;;5.75;3.80;;;;;;;13.34;92.98;101572.47;692657;28;1395;-77
2022/06/17 01:31:09;;;;;;;5.43;3.60;;;;;;;13.32;93.35;101573.34;692961;28;4312;-78
2022/06/17 01:31:31;;;;;;;4.88;3.55;;;;;;;13.35;93.26;101574.25;690880;28;1303;-78
2022/06/17 01:31:54;;;;;;;5.93;4.03;;;;;;;13.32;93.93;101581.22;694824;28;994;-78
2022/06/17 01:32:19;;;;;;;6.50;3.78;;;;;;;13.25;93.45;101572.47;693991;28;1475;-78
2022/06/17 01:32:47;;;;;;;5.38;3.85;;;;;;;13.20;94.34;101575.13;696484;28;1334;-77
2022/06/17 01:33:16;;;;;;;5.47;3.60;;;;;;;13.22;93.83;101576.00;694551;28;1083;-78
2022/06/17 01:33:40;;;;;;;4.80;3.65;;;;;;;13.25;93.38;101578.63;689650;28;853;-78
2022/06/17 01:34:00;;;;;;;4.93;3.50;;;;;;;13.22;94.99;101576.00;692525;28;1141;-78
2022/06/17 01:34:21;;;;;;;6.00;3.83;;;;;;;13.24;94.34;101578.63;694356;28;4336;-77
2022/06/17 01:34:41;;;;;;;5.17;3.67;;;;;;;13.22;94.75;101578.63;692730;28;1889;-78
2022/06/17 01:35:04;;;;;;;6.18;3.65;;;;;;;13.22;94.41;101576.00;694405;28;1239;-77
2022/06/17 01:35:28;;;;;;;6.10;3.55;;;;;;;13.22;94.61;101580.38;695909;28;1946;-78
2022/06/17 01:35:49;;;;;;;5.38;3.53;;;;;;;13.19;94.87;101576.00;695991;28;1396;-78
2022/06/17 01:36:18;;;;;;;4.90;3.60;;;;;;;13.18;94.55;101584.78;694790;28;1178;-78
2022/06/17 01:36:38;;;;;;;5.95;3.70;;;;;;;13.22;94.05;101580.38;698359;28;1314;-78
2022/06/17 01:36:59;;;;;;;5.95;3.78;;;;;;;13.22;95.61;101591.75;697942;28;1197;-78
2022/06/17 01:37:20;;;;;;;5.67;3.70;;;;;;;13.24;94.13;101581.25;697296;28;4257;-78
2022/06/17 01:37:41;;;;;;;5.28;3.60;;;;;;;13.25;93.86;101581.25;698334;28;1530;-78
2022/06/17 01:38:02;;;;;;;4.90;3.60;;;;;;;13.25;92.50;101578.63;695303;28;1341;-78
2022/06/17 01:38:23;;;;;;;5.28;3.70;;;;;;;13.22;93.41;101589.16;691474;28;1156;-78
2022/06/17 01:38:50;;;;;;;6.00;3.85;;;;;;;13.21;94.00;101587.38;690509;28;1394;-78
2022/06/17 01:39:13;;;;;;;4.95;3.90;;;;;;;13.22;93.66;101588.25;688333;28;5179;-78
2022/06/17 01:39:34;;;;;;;5.50;3.90;;;;;;;13.21;94.75;101595.25;691295;28;1330;-78
2022/06/17 01:39:56;;;;;;;5.85;3.90;;;;;;;13.21;94.17;101586.50;690075;28;1120;-78
2022/06/17 01:40:18;;;;;;;5.43;3.88;;;;;;;13.22;94.51;101594.38;689032;28;4345;-78
2022/06/17 01:40:39;;;;;;;5.75;3.72;;;;;;;13.23;93.44;101590.88;690914;28;1211;-78
2022/06/17 01:41:02;;;;;;;6.15;3.80;;;;;;;13.24;94.60;101592.63;692174;28;1108;-78
2022/06/17 01:41:30;;;;;;;5.55;3.90;;;;;;;13.24;95.82;101597.88;693454;28;1496;-77
2022/06/17 01:41:52;;;;;;;4.70;3.78;;;;;;;13.24;96.00;101597.00;694508;28;1265;-78
2022/06/17 01:42:13;;;;;;;4.85;3.90;;;;;;;13.23;94.83;101590.88;698495;28;1460;-78
2022/06/17 01:42:37;;;;;;;4.93;4.00;;;;;;;13.27;93.79;101591.75;700488;28;1345;-78
2022/06/17 01:43:01;;;;;;;5.65;3.80;;;;;;;13.29;93.24;101593.50;699728;28;902;-78
2022/06/17 01:43:27;;;;;;;5.25;4.00;;;;;;;13.28;94.62;101594.38;694641;28;4287;-78
2022/06/17 01:43:50;;;;;;;5.40;3.72;;;;;;;13.27;92.87;101597.88;695684;28;1311;-78
2022/06/17 01:44:17;;;;;;;5.85;3.70;;;;;;;13.28;94.78;101599.63;696931;28;1048;-78
2022/06/17 01:44:41;;;;;;;6.22;3.58;;;;;;;13.29;95.01;101601.38;695042;28;1612;-78
2022/06/17 01:45:02;;;;;;;6.10;3.60;;;;;;;13.28;93.99;101604.88;695989;28;934;-78
2022/06/17 01:45:22;;;;;;;5.80;3.70;;;;;;;13.29;94.03;101598.75;695579;28;1458;-78
2022/06/17 01:45:49;;;;;;;5.35;3.78;;;;;;;13.33;93.56;101601.38;698056;28;1291;-78
2022/06/17 01:46:15;;;;;;;5.60;3.78;;;;;;;13.34;93.64;101593.47;693908;28;4309;-78
2022/06/17 01:46:41;;;;;;;5.32;3.42;;;;;;;13.35;93.97;101594.38;697922;28;1734;-78
2022/06/17 01:47:05;;;;;;;5.43;3.50;;;;;;;13.34;93.15;101600.50;694284;28;1182;-78
2022/06/17 01:47:29;;;;;;;5.75;3.70;;;;;;;13.32;92.65;101594.34;695989;28;1673;-78
2022/06/17 01:47:49;;;;;;;5.35;3.88;;;;;;;13.33;94.33;101604.00;693828;28;1622;-78
2022/06/17 01:48:13;;;;;;;5.07;3.92;;;;;;;13.34;94.54;101598.75;692215;28;1522;-78
2022/06/17 01:48:39;;;;;;;4.68;3.70;;;;;;;13.27;95.15;101600.50;692943;28;1706;-78
2022/06/17 01:49:07;;;;;;;5.45;3.72;;;;;;;13.29;94.38;101597.84;697648;28;1760;-78
2022/06/17 01:49:35;;;;;;;5.68;3.60;;;;;;;13.27;94.22;101592.63;697862;28;4704;-78
2022/06/17 01:50:01;;;;;;;5.60;3.65;;;;;;;13.26;95.53;101600.50;698675;28;1452;-78
2022/06/17 01:50:26;;;;;;;5.65;3.80;;;;;;;13.25;95.62;101607.50;693811;28;1463;-78
2022/06/17 01:50:50;;;;;;;5.50;3.50;;;;;;;13.25;94.98;101602.25;696777;28;1560;-78
2022/06/17 01:51:14;;;;;;;6.15;3.60;;;;;;;13.18;94.07;101597.91;695433;28;1223;-78
2022/06/17 01:51:40;;;;;;;5.90;3.40;;;;;;;13.20;93.43;101600.50;696030;28;1413;-77
2022/06/17 01:52:07;;;;;;;5.35;3.50;;;;;;;13.20;93.97;101600.50;696206;28;1656;-78
2022/06/17 01:52:33;;;;;;;5.38;3.55;;;;;;;13.15;94.84;101603.13;693152;28;4935;-78
2022/06/17 01:53:00;;;;;;;5.45;3.60;;;;;;;13.16;93.99;101599.63;694644;28;1445;-78
2022/06/17 01:53:28;;;;;;;4.82;3.50;;;;;;;13.17;94.54;101606.63;692917;28;1387;-77
2022/06/17 01:53:54;;;;;;;7.40;3.80;;;;;;;13.16;96.16;101604.88;696789;28;1822;-78
2022/06/17 01:54:20;;;;;;;6.10;3.65;;;;;;;13.14;96.02;101605.75;694204;28;1223;-78
2022/06/17 01:54:54;;;;;;;5.93;3.70;;;;;;;13.16;95.08;101604.88;691434;28;1203;-78
2022/06/17 01:55:20;;;;;;;5.03;3.47;;;;;;;13.16;95.00;101607.50;693982;28;4308;-77
2022/06/17 01:55:45;;;;;;;5.72;3.63;;;;;;;13.14;95.20;101600.50;695309;28;1544;-78
2022/06/17 01:56:12;;;;;;;5.43;3.53;;;;;;;13.11;95.69;101604.91;694760;28;1571;-78
2022/06/17 01:56:36;;;;;;;5.00;3.47;;;;;;;13.09;95.59;101611.88;697843;28;1417;-78
2022/06/17 01:57:01;;;;;;;5.07;3.40;;;;;;;13.10;94.55;101602.28;692294;28;1340;-78
2022/06/17 01:57:27;;;;;;;5.97;3.80;;;;;;;13.06;95.97;101604.00;692404;28;1344;-78
2022/06/17 01:58:02;;;;;;;6.28;3.92;;;;;;;13.02;95.84;101610.13;691557;28;1365;-77
2022/06/17 01:58:32;;;;;;;4.75;3.40;;;;;;;13.03;95.68;101598.78;693122;28;4586;-78
2022/06/17 01:59:13;;;;;;;5.80;3.67;;;;;;;13.06;95.87;101608.41;694819;28;1576;-78
2022/06/17 01:59:40;;;;;;;5.82;3.47;;;;;;;13.06;95.71;101604.00;693316;28;1319;-78
2022/06/17 02:00:12;;;;;;;6.25;3.80;;;;;;;13.05;96.50;101606.63;693420;28;1681;-77
2022/06/17 02:00:42;;;;;;;5.80;3.70;;;;;;;13.06;95.84;101603.16;695624;28;1439;-79
2022/06/17 02:01:05;;;;;;;5.75;3.72;;;;;;;13.10;95.10;101602.28;694812;28;1503;-79